Language selection

Features

My Weather Profile Weather Topics  | 

Southwest Coast: Past 24 Hour Conditions

 

Blanc-Sablon Airport

11:00 PM AST 13 December 2019
Disclaimer

This table is a summary of hourly weather conditions for the past 24 hours.
Please note that these observations might not always be representative of weather conditions over their associated marine area.

Date / Time
(AST)
Wind(knots) Conditions Visibility(km) Pressure(kPa) Air tempC) Relative humidity(%) Dew pointC) Wind Chill
13 December 2019
23:00 NW 8 Partly Cloudy 24 103.4 -18 60 -24 -26
22:00 WNW 10 Mainly Clear 24 103.4 -17 59 -23 -26
21:00 NW 11 Mainly Clear 24 103.4 -17 59 -24 -27
20:00 WNW 10 gust 19 Mainly Clear 24 103.4 -17 56 -23 -26
19:00 WNW 13 Mainly Clear 24 103.4 -16 59 -22 -26
18:00 WNW 10 gust 17 Mainly Clear 24 103.3 -16 57 -22 -25
17:00 WNW 13 gust 18 Mainly Clear 24 103.3 -15 54 -23 -25
16:00 W 13 gust 19 Mainly Clear 24 103.3 -15 55 -22 -25
15:00 WNW 12 gust 22 Mainly Sunny 24 103.2 -14 52 -22 -24
14:00 W 15 gust 21 Mainly Sunny 24 103.1 -14 50 -23 -25
13:00 W 16 gust 25 Mainly Sunny 24 103.1 -14 50 -23 -25
12:00 W 16 Mainly Sunny 24 103.1 -16 49 -25 -27
11:00 WNW 14 gust 19 Mainly Sunny 24 103.1 -17 52 -25 -28
10:00 WNW 11 gust 19 Mainly Sunny 24 103.1 -19 57 -25 -29
9:00 W 13 gust 21 Mainly Sunny 24 103.0 -20 63 -25 -31
8:00 W 18 gust 26 Mainly Sunny 24 102.9 -20 64 -25 -34
7:00 W 15 gust 21 Mainly Clear 24 102.9 -20 64 -25 -32
6:00 W 17 gust 23 Mainly Clear 24 102.8 -20 64 -25 -32
5:00 WNW 19 gust 27 Clear 24 102.7 -20 60 -26 -33
4:00 W 19 gust 26 Mainly Clear 24 102.6 -20 59 -26 -33
3:00 W 12 gust 24 Clear 24 102.6 -19 59 -25 -30
2:00 WNW 13 gust 20 Mainly Clear 24 102.5 -19 60 -25 -30
1:00 WNW 14 gust 22 Clear 24 102.4 -19 61 -24 -30
0:00 WNW 12 gust 20 Clear 24 102.3 -18 61 -24 -28
12 December 2019
23:00 WNW 11 gust 24 Mainly Clear 24 102.2 -17 59 -24 -27

Zoom-in to make a selection

Map of Atlantic - Newfoundland marine weather areas Banquereau - 44139 Blanc-Sablon Airport Cap Whittle Chevery Natashquan Airport Heath Point Îles de la Madeleine Airport Miscou Island Eskasoni (First Nations) Grand Étang Ingonish Beach North Mountain St.Paul Island J.A. Douglas McCurdy Sydney Airport Charlottetown Airport East Point North Cape Argentia Bonavista Burgeo Cape Race Corner Brook Daniel's Harbour Englee Ferolle Point La Scie Port aux Basques Rocky Harbour Sagona Island St. Anthony Airport St. John's Int'l Airport St. Lawrence Stephenville Airport Twillingate Winterland Branch Hill Wreckhouse Grates Cove Pool's Island Marticot Island Long Pond Cartwright Airport Mary's Harbour
Legend:
buoy Buoy
land station Land Station

Atlantic - Newfoundland Area

Another Region

What we are doing

Date modified: